createdAt,value
2023-09-13T00:01:09.120Z,21.02
2023-09-13T00:03:36.711Z,18.13
2023-09-13T00:06:03.877Z,19.65
2023-09-13T00:08:30.811Z,21.85
2023-09-13T00:11:04.853Z,21.90
2023-09-13T00:13:34.022Z,21.92
2023-09-13T00:16:01.320Z,20.73
2023-09-13T00:18:28.252Z,17.27
2023-09-13T00:20:55.165Z,22.48
2023-09-13T00:23:22.438Z,19.80
2023-09-13T00:25:49.319Z,20.13
2023-09-13T00:28:16.173Z,19.38
2023-09-13T00:30:43.216Z,17.90
2023-09-13T00:33:10.136Z,19.00
2023-09-13T00:35:37.082Z,20.65
2023-09-13T00:38:04.091Z,17.95
2023-09-13T00:40:31.020Z,17.48
2023-09-13T00:42:57.940Z,17.77
2023-09-13T00:45:24.811Z,19.33
2023-09-13T00:47:52.193Z,18.85
2023-09-13T00:50:19.403Z,18.40
2023-09-13T00:52:47.508Z,18.98
2023-09-13T00:55:17.513Z,19.00
2023-09-13T00:57:45.171Z,17.60
2023-09-13T01:00:12.858Z,17.23
2023-09-13T01:02:41.403Z,18.35
2023-09-13T01:05:10.225Z,19.10
2023-09-13T01:07:39.794Z,16.33
2023-09-13T01:10:07.886Z,20.00
2023-09-13T01:12:35.034Z,19.85
2023-09-13T01:15:03.234Z,18.92
2023-09-13T01:17:48.725Z,19.25
2023-09-13T01:20:23.007Z,18.70
2023-09-13T01:23:06.119Z,17.95
2023-09-13T01:26:01.083Z,18.80
2023-09-13T01:28:48.138Z,19.60
2023-09-13T01:31:22.178Z,18.73
2023-09-13T01:33:50.037Z,18.48
2023-09-13T01:36:17.179Z,20.17
2023-09-13T01:38:44.371Z,20.90
2023-09-13T01:41:22.155Z,18.48
2023-09-13T01:43:55.432Z,19.13
2023-09-13T01:46:36.385Z,19.85
2023-09-13T01:49:05.780Z,19.73
2023-09-13T01:51:34.425Z,18.23
2023-09-13T01:54:01.365Z,20.88
2023-09-13T01:56:28.450Z,19.70
2023-09-13T01:58:55.293Z,19.95
2023-09-13T02:01:23.166Z,19.83
2023-09-13T02:03:50.186Z,19.02
2023-09-13T02:06:17.008Z,18.35
2023-09-13T02:08:44.378Z,15.63
2023-09-13T02:11:12.102Z,17.58
2023-09-13T02:13:39.224Z,16.35
2023-09-13T02:16:06.456Z,17.80
2023-09-13T02:18:33.566Z,16.42
2023-09-13T02:21:00.610Z,16.42
2023-09-13T02:23:27.499Z,16.13
2023-09-13T02:25:55.722Z,15.90
2023-09-13T02:28:22.865Z,16.92
2023-09-13T02:30:49.929Z,17.27
2023-09-13T02:33:16.944Z,14.13
2023-09-13T02:35:43.803Z,17.38
2023-09-13T02:38:10.714Z,18.02
2023-09-13T02:40:38.853Z,14.07
2023-09-13T02:43:06.032Z,14.68
2023-09-13T02:45:33.229Z,17.08
2023-09-13T02:48:01.280Z,15.00
2023-09-13T02:50:28.187Z,16.42
2023-09-13T02:52:55.057Z,16.10
2023-09-13T02:55:21.928Z,15.50
2023-09-13T02:57:48.930Z,15.48
2023-09-13T03:00:16.134Z,13.90
2023-09-13T03:02:44.141Z,15.52
2023-09-13T03:05:11.360Z,16.20
2023-09-13T03:07:38.740Z,14.27
2023-09-13T03:10:06.163Z,17.95
2023-09-13T03:12:34.801Z,15.23
2023-09-13T03:15:04.378Z,15.32
2023-09-13T03:17:31.574Z,15.23
2023-09-13T03:19:58.426Z,16.35
2023-09-13T03:22:26.091Z,14.73
2023-09-13T03:24:53.057Z,15.15
2023-09-13T03:27:20.097Z,14.48
2023-09-13T03:29:47.366Z,16.02
2023-09-13T03:32:14.213Z,15.18
2023-09-13T03:34:41.153Z,16.27
2023-09-13T03:37:08.141Z,14.05
2023-09-13T03:39:35.653Z,14.65
2023-09-13T03:42:03.893Z,12.43
2023-09-13T03:44:30.861Z,11.57
2023-09-13T03:46:57.862Z,14.40
2023-09-13T03:49:25.462Z,14.55
2023-09-13T03:51:52.995Z,11.93
2023-09-13T03:54:20.602Z,14.25
2023-09-13T03:56:47.654Z,13.35
2023-09-13T03:59:14.512Z,12.13
2023-09-13T04:01:41.855Z,13.85
2023-09-13T04:04:09.054Z,12.98
2023-09-13T04:06:36.105Z,13.38
2023-09-13T04:09:03.583Z,14.52
2023-09-13T04:11:30.536Z,14.27
2023-09-13T04:13:57.913Z,14.25
2023-09-13T04:16:25.211Z,13.98
2023-09-13T04:18:52.244Z,13.13
2023-09-13T04:21:19.304Z,14.27
2023-09-13T04:23:46.582Z,12.52
2023-09-13T04:26:14.678Z,12.40
2023-09-13T04:28:42.757Z,13.25
2023-09-13T04:31:09.634Z,11.77
2023-09-13T04:33:55.733Z,12.35
2023-09-13T04:36:30.340Z,10.85
2023-09-13T04:38:58.265Z,11.23
2023-09-13T04:41:25.863Z,7.88
2023-09-13T04:43:52.724Z,9.07
2023-09-13T04:46:20.672Z,7.35
2023-09-13T04:48:47.809Z,6.97
2023-09-13T04:51:14.831Z,5.25
2023-09-13T04:53:41.798Z,5.03
2023-09-13T04:56:09.341Z,4.65
2023-09-13T04:58:41.177Z,4.45
2023-09-13T05:01:08.269Z,5.00
2023-09-13T05:03:35.778Z,3.92
2023-09-13T05:06:04.274Z,4.75
2023-09-13T05:08:32.513Z,4.53
2023-09-13T05:10:59.345Z,5.13
2023-09-13T05:13:26.263Z,4.35
2023-09-13T05:15:53.236Z,4.63
2023-09-13T05:18:20.155Z,4.18
2023-09-13T05:20:47.009Z,5.28
2023-09-13T05:23:13.864Z,4.63
2023-09-13T05:25:47.246Z,3.63
2023-09-13T05:28:14.732Z,3.35
2023-09-13T05:30:43.441Z,3.17
2023-09-13T05:33:10.485Z,2.92
2023-09-13T05:35:37.380Z,2.80
2023-09-13T05:38:04.473Z,2.60
2023-09-13T05:40:31.756Z,2.95
2023-09-13T05:42:59.489Z,2.60
2023-09-13T05:45:26.692Z,2.38
2023-09-13T05:47:53.732Z,2.60
2023-09-13T05:50:21.008Z,2.33
2023-09-13T05:52:47.857Z,1.73
2023-09-13T05:55:14.856Z,2.53
2023-09-13T05:57:41.743Z,1.90
2023-09-13T06:00:09.036Z,2.88
2023-09-13T06:05:08.553Z,2.63
2023-09-13T06:07:36.168Z,2.10
2023-09-13T06:10:03.834Z,2.15
2023-09-13T06:12:32.083Z,2.45
2023-09-13T06:15:00.432Z,2.15
2023-09-13T06:17:27.368Z,1.90
2023-09-13T06:19:54.295Z,2.30
2023-09-13T06:22:21.215Z,2.17
2023-09-13T06:24:48.245Z,1.90
2023-09-13T06:27:15.091Z,2.20
2023-09-13T06:29:41.947Z,2.28
2023-09-13T06:32:20.841Z,2.40
2023-09-13T06:35:00.422Z,1.90
2023-09-13T06:37:27.960Z,1.85
2023-09-13T06:39:55.612Z,2.88
2023-09-13T06:42:28.574Z,2.50
2023-09-13T06:45:10.389Z,1.98
2023-09-13T06:47:40.375Z,1.92
2023-09-13T06:50:09.394Z,2.10
2023-09-13T06:52:43.963Z,2.13
2023-09-13T06:55:22.058Z,2.42
2023-09-13T06:57:53.380Z,1.88
2023-09-13T07:00:30.797Z,1.73
2023-09-13T07:05:36.122Z,1.90
2023-09-13T07:08:03.023Z,1.70
2023-09-13T07:10:30.255Z,1.88
2023-09-13T07:12:58.583Z,1.48
2023-09-13T07:15:27.509Z,1.55
2023-09-13T07:17:55.201Z,1.88
2023-09-13T07:20:22.302Z,2.38
2023-09-13T07:22:49.254Z,1.55
2023-09-13T07:25:16.559Z,1.42
2023-09-13T07:27:43.578Z,2.05
2023-09-13T07:30:11.448Z,1.20
2023-09-13T07:32:38.581Z,1.60
2023-09-13T07:35:05.822Z,2.50
2023-09-13T07:37:34.403Z,2.25
2023-09-13T07:40:01.506Z,1.52
2023-09-13T07:42:28.330Z,1.30
2023-09-13T07:44:55.278Z,1.75
2023-09-13T07:47:22.183Z,1.92
2023-09-13T07:49:49.300Z,1.80
2023-09-13T07:52:16.365Z,1.33
2023-09-13T07:54:44.267Z,1.65
2023-09-13T07:57:11.179Z,1.30
2023-09-13T07:59:38.949Z,1.50
2023-09-13T08:02:05.928Z,1.85
2023-09-13T08:04:32.973Z,1.27
2023-09-13T08:07:00.666Z,2.17
2023-09-13T08:09:28.133Z,2.42
2023-09-13T08:11:55.929Z,1.42
2023-09-13T08:14:22.797Z,1.17
2023-09-13T08:16:49.766Z,1.08
2023-09-13T08:19:16.718Z,1.75
2023-09-13T08:21:43.594Z,1.38
2023-09-13T08:24:10.891Z,1.60
2023-09-13T08:26:37.772Z,1.65
2023-09-13T08:29:05.064Z,2.00
2023-09-13T08:31:32.053Z,2.20
2023-09-13T08:33:58.950Z,1.30
2023-09-13T08:36:25.802Z,1.50
2023-09-13T08:38:52.637Z,1.25
2023-09-13T08:41:19.543Z,1.33
2023-09-13T08:43:48.571Z,1.33
2023-09-13T08:46:17.075Z,1.80
2023-09-13T08:48:45.270Z,2.63
2023-09-13T08:51:14.748Z,1.30
2023-09-13T08:53:43.379Z,1.50
2023-09-13T08:56:10.780Z,1.65
2023-09-13T08:58:37.807Z,1.95
2023-09-13T09:01:07.351Z,1.92
2023-09-13T09:03:36.074Z,1.65
2023-09-13T09:06:06.616Z,1.45
2023-09-13T09:11:06.343Z,1.83
2023-09-13T09:13:33.959Z,2.05
2023-09-13T09:16:02.006Z,2.40
2023-09-13T09:18:31.403Z,1.50
2023-09-13T09:20:59.035Z,2.40
2023-09-13T09:23:28.462Z,1.95
2023-09-13T09:25:55.584Z,1.50
2023-09-13T09:28:23.801Z,2.05
2023-09-13T09:30:52.997Z,2.00
2023-09-13T09:33:30.694Z,2.58
2023-09-13T09:36:00.523Z,2.30
2023-09-13T09:38:29.716Z,2.03
2023-09-13T09:40:59.315Z,2.47
2023-09-13T09:43:26.513Z,1.52
2023-09-13T09:45:54.317Z,1.92
2023-09-13T09:48:24.157Z,3.90
2023-09-13T09:50:54.395Z,1.90
2023-09-13T09:55:49.749Z,2.08
2023-09-13T09:58:18.606Z,2.05
2023-09-13T10:00:54.083Z,2.47
2023-09-13T10:03:23.438Z,2.08
2023-09-13T10:06:07.753Z,2.35
2023-09-13T10:08:49.103Z,2.22
2023-09-13T10:11:21.520Z,2.33
2023-09-13T10:13:49.199Z,2.00
2023-09-13T10:16:18.178Z,2.72
2023-09-13T10:18:52.604Z,4.10
2023-09-13T10:21:27.946Z,1.88
2023-09-13T10:23:58.644Z,1.80
2023-09-13T10:26:26.660Z,2.13
2023-09-13T10:28:56.099Z,2.92
2023-09-13T10:31:28.946Z,3.28
2023-09-13T10:34:02.335Z,1.90
2023-09-13T10:36:34.757Z,1.70
2023-09-13T10:39:25.705Z,2.03
2023-09-13T10:42:01.586Z,2.88
2023-09-13T10:44:28.455Z,2.58
2023-09-13T10:46:56.611Z,2.40
2023-09-13T10:49:25.401Z,1.70
2023-09-13T10:51:54.684Z,3.28
2023-09-13T10:54:23.105Z,2.78
2023-09-13T10:56:50.831Z,3.85
2023-09-13T10:59:19.607Z,3.38
2023-09-13T11:01:47.576Z,2.05
2023-09-13T11:04:20.212Z,1.58
2023-09-13T11:06:49.564Z,1.50
2023-09-13T11:09:31.572Z,1.52
2023-09-13T11:12:00.588Z,1.90
2023-09-13T11:14:29.421Z,1.52
2023-09-13T11:16:58.998Z,2.17
2023-09-13T11:19:29.439Z,2.33
2023-09-13T11:25:01.750Z,3.55
2023-09-13T11:27:30.579Z,2.70
2023-09-13T11:30:00.154Z,1.98
2023-09-13T11:32:31.003Z,2.47
2023-09-13T11:35:00.534Z,3.20
2023-09-13T11:37:28.904Z,2.73
2023-09-13T11:40:17.130Z,2.58
2023-09-13T11:45:29.500Z,2.08
2023-09-13T11:48:00.279Z,1.63
2023-09-13T11:50:46.307Z,1.83
2023-09-13T11:53:21.059Z,1.25
2023-09-13T11:56:09.625Z,3.00
2023-09-13T11:58:54.619Z,1.60
2023-09-13T12:01:27.311Z,1.35
2023-09-13T12:06:33.626Z,1.20
2023-09-13T12:09:13.741Z,2.42
2023-09-13T12:11:44.570Z,1.42
2023-09-13T12:14:16.660Z,2.03
2023-09-13T12:16:51.217Z,1.80
2023-09-13T12:19:18.656Z,2.30
2023-09-13T12:21:46.864Z,1.50
2023-09-13T12:24:21.349Z,2.08
2023-09-13T12:26:52.479Z,1.50
2023-09-13T12:29:19.339Z,1.42
2023-09-13T12:31:46.567Z,1.50
2023-09-13T12:34:13.716Z,2.72
2023-09-13T12:36:41.865Z,2.22
2023-09-13T12:39:16.924Z,1.50
2023-09-13T12:41:45.168Z,1.52
2023-09-13T12:44:12.847Z,1.58
2023-09-13T12:46:41.463Z,1.23
2023-09-13T12:49:12.093Z,1.77
2023-09-13T12:51:39.624Z,2.13
2023-09-13T12:54:10.046Z,1.73
2023-09-13T12:56:38.790Z,1.17
2023-09-13T12:59:07.528Z,2.50
2023-09-13T13:01:36.825Z,1.63
2023-09-13T13:04:11.916Z,2.27
2023-09-13T13:07:03.639Z,1.92
2023-09-13T13:09:31.019Z,1.83
2023-09-13T13:11:58.501Z,3.40
2023-09-13T13:14:28.190Z,2.15
2023-09-13T13:17:00.138Z,1.98
2023-09-13T13:22:11.695Z,3.65
2023-09-13T13:24:40.456Z,1.80
2023-09-13T13:27:07.824Z,1.75
2023-09-13T13:29:39.546Z,2.20
2023-09-13T13:32:07.068Z,1.77
2023-09-13T13:34:34.262Z,1.88
2023-09-13T13:37:01.224Z,2.00
2023-09-13T13:39:29.349Z,1.85
2023-09-13T13:41:56.500Z,1.58
2023-09-13T13:44:23.706Z,1.45
2023-09-13T13:46:50.895Z,1.65
2023-09-13T13:49:19.441Z,1.58
2023-09-13T13:51:50.888Z,1.67
2023-09-13T13:54:19.430Z,1.50
2023-09-13T13:56:47.447Z,2.28
2023-09-13T13:59:15.306Z,1.70
2023-09-13T14:01:42.673Z,1.65
2023-09-13T14:04:10.163Z,1.50
2023-09-13T14:06:37.725Z,1.13
2023-09-13T14:09:04.967Z,0.95
2023-09-13T14:11:32.219Z,1.05
2023-09-13T14:13:59.098Z,2.33
2023-09-13T14:16:26.169Z,1.55
2023-09-13T14:18:53.244Z,1.48
2023-09-13T14:21:20.273Z,0.90
2023-09-13T14:23:47.390Z,1.65
2023-09-13T14:26:14.683Z,1.10
2023-09-13T14:28:41.495Z,1.13
2023-09-13T14:31:13.626Z,1.50
2023-09-13T14:33:47.476Z,1.80
2023-09-13T14:36:15.792Z,1.13
2023-09-13T14:38:43.306Z,1.38
2023-09-13T14:41:10.476Z,1.88
2023-09-13T14:43:38.044Z,1.23
2023-09-13T14:46:05.652Z,1.23
2023-09-13T14:48:32.932Z,1.25
2023-09-13T14:51:00.114Z,1.63
2023-09-13T14:53:26.978Z,1.48
2023-09-13T14:55:57.720Z,1.35
2023-09-13T14:58:25.190Z,1.55
2023-09-13T15:00:52.229Z,1.73
2023-09-13T15:03:19.278Z,1.25
2023-09-13T15:05:46.269Z,1.35
2023-09-13T15:08:13.320Z,1.30
2023-09-13T15:10:41.145Z,1.40
2023-09-13T15:13:08.178Z,1.10
2023-09-13T15:15:35.128Z,0.90
2023-09-13T15:18:02.245Z,1.67
2023-09-13T15:20:29.627Z,1.55
2023-09-13T15:22:56.568Z,2.65
2023-09-13T15:25:23.503Z,0.90
2023-09-13T15:27:50.453Z,1.20
2023-09-13T15:30:17.378Z,1.08
2023-09-13T15:32:46.052Z,1.40
2023-09-13T15:35:15.313Z,1.25
2023-09-13T15:37:42.190Z,1.00
2023-09-13T15:40:10.155Z,1.98
2023-09-13T15:42:37.995Z,1.63
2023-09-13T15:45:05.499Z,1.27
2023-09-13T15:47:32.381Z,1.50
2023-09-13T15:49:59.794Z,2.13
2023-09-13T15:52:26.681Z,1.50
2023-09-13T15:54:55.311Z,1.10
2023-09-13T15:57:24.633Z,2.08
2023-09-13T15:59:51.819Z,1.45
2023-09-13T16:02:19.092Z,1.27
2023-09-13T16:04:46.260Z,1.40
2023-09-13T16:07:14.507Z,2.20
2023-09-13T16:09:41.595Z,1.35
2023-09-13T16:12:08.682Z,3.10
2023-09-13T16:14:36.368Z,2.25
2023-09-13T16:17:04.391Z,3.55
2023-09-13T16:19:32.223Z,1.83
2023-09-13T16:21:59.072Z,1.90
2023-09-13T16:24:26.534Z,1.67
2023-09-13T16:26:54.118Z,1.10
2023-09-13T16:29:20.969Z,1.40
2023-09-13T16:31:48.093Z,1.88
2023-09-13T16:34:15.682Z,1.13
2023-09-13T16:36:43.434Z,1.33
2023-09-13T16:39:10.304Z,1.30
2023-09-13T16:41:39.882Z,1.20
2023-09-13T16:44:06.889Z,1.80
2023-09-13T16:46:33.773Z,0.98
2023-09-13T16:49:00.722Z,0.90
2023-09-13T16:51:29.205Z,1.17
2023-09-13T16:53:57.642Z,1.67
2023-09-13T16:56:25.589Z,1.42
2023-09-13T16:58:52.781Z,1.27
2023-09-13T17:01:19.802Z,1.02
2023-09-13T17:03:47.381Z,1.95
2023-09-13T17:06:14.872Z,1.27
2023-09-13T17:08:42.373Z,2.13
2023-09-13T17:11:13.979Z,1.35
2023-09-13T17:13:41.651Z,1.77
2023-09-13T17:16:08.840Z,1.35
2023-09-13T17:18:36.017Z,1.85
2023-09-13T17:21:04.401Z,2.85
2023-09-13T17:23:31.376Z,1.30
2023-09-13T17:25:58.613Z,1.30
2023-09-13T17:28:25.752Z,2.83
2023-09-13T17:30:53.733Z,1.45
2023-09-13T17:33:22.253Z,1.27
2023-09-13T17:35:50.041Z,2.40
2023-09-13T17:38:18.249Z,2.90
2023-09-13T17:40:49.084Z,1.55
2023-09-13T17:43:16.258Z,0.60
2023-09-13T17:45:43.714Z,1.10
2023-09-13T17:48:12.420Z,1.10
2023-09-13T17:50:39.823Z,0.73
2023-09-13T17:53:07.710Z,0.90
2023-09-13T17:55:35.137Z,0.95
2023-09-13T17:58:02.203Z,0.88
2023-09-13T18:00:29.477Z,1.38
2023-09-13T18:02:57.093Z,0.98
2023-09-13T18:05:24.204Z,0.85
2023-09-13T18:07:59.519Z,0.80
2023-09-13T18:10:27.114Z,3.08
2023-09-13T18:12:54.470Z,0.77
2023-09-13T18:15:21.455Z,1.33
2023-09-13T18:17:55.115Z,1.08
2023-09-13T18:20:23.630Z,1.02
2023-09-13T18:22:50.516Z,0.98
2023-09-13T18:25:17.677Z,1.40
2023-09-13T18:27:44.838Z,0.85
2023-09-13T18:30:12.820Z,1.33
2023-09-13T18:32:39.700Z,1.38
2023-09-13T18:35:07.118Z,1.08
2023-09-13T18:37:35.752Z,1.98
2023-09-13T18:40:04.548Z,0.90
2023-09-13T18:42:35.235Z,1.15
2023-09-13T18:45:02.292Z,1.05
2023-09-13T18:47:29.281Z,1.33
2023-09-13T18:49:56.179Z,1.67
2023-09-13T18:52:23.124Z,0.80
2023-09-13T18:54:50.034Z,0.82
2023-09-13T18:57:18.151Z,1.20
2023-09-13T18:59:45.292Z,1.25
2023-09-13T19:02:12.348Z,2.22
2023-09-13T19:04:39.356Z,1.42
2023-09-13T19:07:09.897Z,1.02
2023-09-13T19:09:39.595Z,1.65
2023-09-13T19:12:06.928Z,1.63
2023-09-13T19:14:33.758Z,1.27
2023-09-13T19:17:00.624Z,0.80
2023-09-13T19:19:27.772Z,0.95
2023-09-13T19:21:54.793Z,0.80
2023-09-13T19:24:21.749Z,0.60
2023-09-13T19:26:48.666Z,0.90
2023-09-13T19:29:15.684Z,1.00
2023-09-13T19:31:43.951Z,1.27
2023-09-13T19:34:10.863Z,0.80
2023-09-13T19:36:37.773Z,1.30
2023-09-13T19:39:07.120Z,1.13
2023-09-13T19:41:34.523Z,1.10
2023-09-13T19:44:01.523Z,1.10
2023-09-13T19:46:28.486Z,1.10
2023-09-13T19:48:55.523Z,1.02
2023-09-13T19:51:22.927Z,1.23
2023-09-13T19:53:50.295Z,1.10
2023-09-13T19:56:17.229Z,1.13
2023-09-13T19:58:48.327Z,1.25
2023-09-13T20:01:17.178Z,1.30
2023-09-13T20:03:44.574Z,1.40
2023-09-13T20:06:13.258Z,1.20
2023-09-13T20:08:40.262Z,1.23
2023-09-13T20:11:07.225Z,1.52
2023-09-13T20:13:34.116Z,1.30
2023-09-13T20:16:01.061Z,0.93
2023-09-13T20:18:28.213Z,0.90
2023-09-13T20:21:00.174Z,1.00
2023-09-13T20:23:27.104Z,1.13
2023-09-13T20:25:55.479Z,1.10
2023-09-13T20:28:23.580Z,1.00
2023-09-13T20:30:50.651Z,1.35
2023-09-13T20:33:18.404Z,1.25
2023-09-13T20:35:48.644Z,0.95
2023-09-13T20:38:16.412Z,1.05
2023-09-13T20:40:43.514Z,1.63
2023-09-13T20:43:11.577Z,1.08
2023-09-13T20:45:39.246Z,0.98
2023-09-13T20:48:06.633Z,1.55
2023-09-13T20:50:33.588Z,1.80
2023-09-13T20:53:00.500Z,1.40
2023-09-13T20:55:29.596Z,1.85
2023-09-13T20:57:58.717Z,1.08
2023-09-13T21:00:25.755Z,1.50
2023-09-13T21:02:52.871Z,2.40
2023-09-13T21:05:19.835Z,1.83
2023-09-13T21:07:46.682Z,1.33
2023-09-13T21:10:14.158Z,1.35
2023-09-13T21:12:42.112Z,1.83
2023-09-13T21:15:09.540Z,1.40
2023-09-13T21:17:36.501Z,1.20
2023-09-13T21:20:03.575Z,1.38
2023-09-13T21:22:30.445Z,1.25
2023-09-13T21:24:57.345Z,1.33
2023-09-13T21:27:24.261Z,3.22
2023-09-13T21:29:51.152Z,1.20
2023-09-13T21:32:17.979Z,2.85
2023-09-13T21:35:00.795Z,2.95
2023-09-13T21:37:31.921Z,2.13
2023-09-13T21:40:01.301Z,0.85
2023-09-13T21:42:28.239Z,1.50
2023-09-13T21:44:58.258Z,1.30
2023-09-13T21:47:28.492Z,1.98
2023-09-13T21:49:56.384Z,1.30
2023-09-13T21:52:23.304Z,1.33
2023-09-13T21:54:51.142Z,1.20
2023-09-13T21:57:19.571Z,1.25
2023-09-13T21:59:46.729Z,1.20
2023-09-13T22:02:14.032Z,1.35
2023-09-13T22:04:41.122Z,1.55
2023-09-13T22:07:08.305Z,1.80
2023-09-13T22:09:35.304Z,1.30
2023-09-13T22:12:02.242Z,1.02
2023-09-13T22:14:30.832Z,1.20
2023-09-13T22:16:57.791Z,1.23
2023-09-13T22:19:24.659Z,0.95
2023-09-13T22:21:53.756Z,0.80
2023-09-13T22:24:20.741Z,1.08
2023-09-13T22:26:47.553Z,2.10
2023-09-13T22:29:14.395Z,1.25
2023-09-13T22:31:41.353Z,0.93
2023-09-13T22:34:08.341Z,2.15
2023-09-13T22:36:35.219Z,0.82
2023-09-13T22:39:08.879Z,1.40
2023-09-13T22:41:38.392Z,1.02
2023-09-13T22:44:06.274Z,1.35
2023-09-13T22:46:33.281Z,1.27
2023-09-13T22:49:00.250Z,1.10
2023-09-13T22:51:27.335Z,0.88
2023-09-13T22:53:56.655Z,0.98
2023-09-13T22:56:23.605Z,1.10
2023-09-13T22:58:51.582Z,1.13
2023-09-13T23:01:18.559Z,1.20
2023-09-13T23:03:46.786Z,1.73
2023-09-13T23:06:14.531Z,1.35
2023-09-13T23:08:41.716Z,1.25
2023-09-13T23:11:08.785Z,0.98
2023-09-13T23:13:35.944Z,1.00
2023-09-13T23:16:06.115Z,0.98
2023-09-13T23:18:36.305Z,0.90
2023-09-13T23:21:03.786Z,0.98
2023-09-13T23:23:30.805Z,1.20
2023-09-13T23:26:02.586Z,0.98
2023-09-13T23:28:30.159Z,0.90
2023-09-13T23:31:04.882Z,1.35
2023-09-13T23:33:32.035Z,1.05
2023-09-13T23:35:58.906Z,1.00
2023-09-13T23:38:26.000Z,1.20
2023-09-13T23:40:53.088Z,1.27
2023-09-13T23:43:20.172Z,1.90
2023-09-13T23:45:47.529Z,0.90
2023-09-13T23:48:14.750Z,0.77
2023-09-13T23:50:42.381Z,0.57
2023-09-13T23:53:09.828Z,1.27
2023-09-13T23:55:36.860Z,1.17
2023-09-13T23:58:04.681Z,1.50
